Current Conditions
Partly Cloudy
Conditions



Pressure
1011.22 (hPa) - 29.86 (inHG)
Visibility

6.8 (mimiles) - 11.0 (km)
   Temperature
N/A
°C
70  °F
Dewpoint
94  %
 Humidity
   Wind Speed
7  mph
6  kts
11  km/h
3.1  m/s
   Wind Direction
 230°
South West
   Airport Data
KDTW
Location Detroit Metropolitan Wayne County Airport 20 mi (32.18 km)
Metar :KDTW 250453Z 23006KT 7SM FEW015 SCT250 22/21 A2986 RMK AO2 SLP107 T02170211 403000206 $
Sun 25th July 00:53 am
   Raw Metar Info
Raw METAR is the most common format in the world for the transmission of observational weather data. It is highly standardized through the International Civil Aviation Organization (ICAO), which allows it to be understood throughout most of the world.
   API Info
Data Provided by
https://www.checkwx.com/weather/KDTW
   © Info
CSS/SVG/PHP scripts were developed by weather34.com for use in the weather34 template © 2015-2021

Guide Info provided by Metar-Wikipedia